Time;durP1;ratioP1;P1;durP2;ratioP2;P2;SDS_P1;SDS_P2;PMS_P1;PMS_P2;Temp;Humidity;BMP_temperature;BMP_pressure;BME280_temperature;BME280_humidity;BME280_pressure;Samples;Min_cycle;Max_cycle;Signal;HPM_P1;HPM_P2
2022/09/12 00:01:59;;;;;;;47.28;26.55;;;12.60;99.90;;;;;;4943968;28;20620;-81
2022/09/12 00:04:25;;;;;;;52.53;26.45;;;12.60;99.90;;;;;;4943680;28;20065;-81
2022/09/12 00:06:51;;;;;;;43.17;24.48;;;12.60;99.90;;;;;;4947855;28;20022;-81
2022/09/12 00:09:17;;;;;;;42.28;24.33;;;12.40;99.90;;;;;;4940047;28;20446;-81
2022/09/12 00:11:43;;;;;;;48.53;24.98;;;12.40;99.90;;;;;;4948637;28;20026;-82
2022/09/12 00:14:11;;;;;;;46.67;25.25;;;12.40;99.90;;;;;;4933400;28;20084;-81
2022/09/12 00:16:36;;;;;;;46.13;25.58;;;12.50;99.90;;;;;;4964866;28;20506;-81
2022/09/12 00:19:02;;;;;;;42.65;24.33;;;12.50;99.90;;;;;;4961062;28;20038;-82
2022/09/12 00:21:28;;;;;;;43.78;24.13;;;12.50;99.90;;;;;;4945333;28;20050;-82
2022/09/12 00:23:54;;;;;;;48.95;25.45;;;12.40;99.90;;;;;;4960775;28;20039;-80
2022/09/12 00:26:20;;;;;;;43.80;23.83;;;12.40;99.90;;;;;;4926986;28;20479;-80
2022/09/12 00:28:46;;;;;;;49.10;25.35;;;12.50;99.90;;;;;;4947780;28;20508;-82
2022/09/12 00:31:13;;;;;;;42.42;23.92;;;12.40;99.90;;;;;;4947443;28;20027;-81
2022/09/12 00:33:39;;;;;;;47.25;24.00;;;12.40;99.90;;;;;;4959742;28;20038;-80
2022/09/12 00:36:18;;;;;;;42.92;23.75;;;12.30;99.90;;;;;;4951091;28;20085;-81
2022/09/12 00:38:44;;;;;;;45.92;23.67;;;12.30;99.90;;;;;;4950585;28;20475;-80
2022/09/12 00:41:15;;;;;;;46.80;26.00;;;12.30;99.90;;;;;;4937330;28;20118;-80
2022/09/12 00:43:43;;;;;;;42.83;24.77;;;12.30;99.90;;;;;;4962458;28;20030;-80
2022/09/12 00:46:31;;;;;;;43.88;24.52;;;12.30;99.90;;;;;;4948233;28;20435;-80
2022/09/12 00:49:23;;;;;;;44.17;24.98;;;12.30;99.90;;;;;;4951084;28;20046;-79
2022/09/12 00:51:52;;;;;;;47.25;23.55;;;12.30;99.90;;;;;;4942198;28;20081;-82
2022/09/12 00:54:20;;;;;;;45.00;24.10;;;12.10;99.90;;;;;;4964146;28;20050;-80
2022/09/12 00:56:45;;;;;;;46.75;24.40;;;12.00;99.90;;;;;;4955558;28;20041;-80
2022/09/12 00:59:15;;;;;;;32.78;20.00;;;12.10;99.90;;;;;;4965173;28;20486;-80
2022/09/12 01:01:41;;;;;;;47.88;24.98;;;12.20;99.90;;;;;;4965803;28;20040;-80
2022/09/12 01:04:07;;;;;;;36.78;22.38;;;12.20;99.90;;;;;;4935804;28;20789;-79
2022/09/12 01:06:40;;;;;;;44.47;23.48;;;12.20;99.90;;;;;;4965853;28;20037;-79
2022/09/12 01:09:06;;;;;;;44.35;24.23;;;12.20;99.90;;;;;;4969878;28;20405;-79
2022/09/12 01:11:34;;;;;;;41.95;23.25;;;12.20;99.90;;;;;;4968106;28;20039;-79
2022/09/12 01:14:00;;;;;;;45.13;24.42;;;12.10;99.90;;;;;;4951745;28;20795;-79
2022/09/12 01:16:25;;;;;;;44.95;23.95;;;12.00;99.90;;;;;;4937039;28;20045;-79
2022/09/12 01:19:11;;;;;;;45.25;25.42;;;11.80;99.90;;;;;;4949365;28;20074;-81
2022/09/12 01:22:19;;;;;;;52.77;25.77;;;11.80;99.90;;;;;;4953353;28;20395;-79
2022/09/12 01:25:12;;;;;;;45.92;24.77;;;11.80;99.90;;;;;;4943804;28;20597;-79
2022/09/12 01:27:48;;;;;;;51.00;25.75;;;11.70;99.90;;;;;;4964454;28;20050;-80
2022/09/12 01:30:29;;;;;;;47.13;26.17;;;11.70;99.90;;;;;;4960520;28;20035;-80
2022/09/12 01:33:10;;;;;;;46.45;25.38;;;11.70;99.90;;;;;;4954804;28;20035;-80
2022/09/12 01:36:07;;;;;;;42.97;24.52;;;11.70;99.90;;;;;;4962913;28;20027;-79
2022/09/12 01:38:45;;;;;;;44.78;23.70;;;11.80;99.90;;;;;;4965736;28;20521;-80
2022/09/12 01:41:24;;;;;;;40.35;22.40;;;11.70;99.90;;;;;;4962069;28;20071;-79
2022/09/12 01:44:02;;;;;;;41.88;23.67;;;11.70;99.90;;;;;;4971492;28;20030;-79
2022/09/12 01:46:40;;;;;;;49.15;24.45;;;11.60;99.90;;;;;;4961962;28;20031;-80
2022/09/12 01:49:20;;;;;;;43.60;23.27;;;11.60;99.90;;;;;;4961135;28;24973;-80
2022/09/12 01:51:56;;;;;;;45.85;24.55;;;11.50;99.90;;;;;;4953615;28;20046;-79
2022/09/12 01:54:45;;;;;;;45.40;23.40;;;11.50;99.90;;;;;;4964876;28;20041;-80
2022/09/12 01:57:15;;;;;;;40.33;22.75;;;11.50;99.90;;;;;;4947735;28;20031;-79
2022/09/12 01:59:44;;;;;;;45.63;23.90;;;11.60;99.90;;;;;;4961393;28;20031;-80
2022/09/12 02:02:15;;;;;;;38.63;22.38;;;11.60;99.90;;;;;;4936309;28;20030;-80
2022/09/12 02:04:57;;;;;;;41.78;23.02;;;11.40;99.90;;;;;;4962359;28;20039;-79
2022/09/12 02:08:07;;;;;;;43.55;22.02;;;11.40;99.90;;;;;;4964204;28;20035;-79
2022/09/12 02:11:00;;;;;;;44.15;23.08;;;11.40;99.90;;;;;;4954983;28;20037;-79
2022/09/12 02:13:38;;;;;;;46.75;22.55;;;11.40;99.90;;;;;;4945157;28;20441;-79
2022/09/12 02:16:09;;;;;;;45.35;22.13;;;11.40;99.90;;;;;;4968292;28;20030;-79
2022/09/12 02:18:35;;;;;;;40.15;22.30;;;11.30;99.90;;;;;;4958983;28;20058;-79
2022/09/12 02:21:01;;;;;;;37.45;19.67;;;11.30;99.90;;;;;;4946173;28;20100;-79
2022/09/12 02:23:28;;;;;;;41.70;22.13;;;11.40;99.90;;;;;;4948491;28;20031;-79
2022/09/12 02:25:55;;;;;;;36.42;20.98;;;11.40;99.90;;;;;;4951507;28;20030;-79
2022/09/12 02:28:26;;;;;;;43.70;22.50;;;11.30;99.90;;;;;;4948139;28;20474;-79
2022/09/12 02:31:13;;;;;;;40.45;22.70;;;11.20;99.90;;;;;;4960642;28;20132;-78
2022/09/12 02:33:57;;;;;;;35.13;20.92;;;11.20;99.90;;;;;;4981466;28;20113;-79
2022/09/12 02:36:54;;;;;;;37.67;20.95;;;11.20;99.90;;;;;;4958006;28;20114;-79
2022/09/12 02:39:20;;;;;;;40.72;19.42;;;11.20;99.90;;;;;;4963218;28;20038;-79
2022/09/12 02:41:55;;;;;;;38.13;21.05;;;11.20;99.90;;;;;;4949464;28;20512;-79
2022/09/12 02:44:21;;;;;;;36.92;22.05;;;11.20;99.90;;;;;;4951537;28;20494;-79
2022/09/12 02:46:49;;;;;;;41.28;21.63;;;11.10;99.90;;;;;;4961606;28;20045;-79
2022/09/12 02:49:15;;;;;;;37.33;20.65;;;11.10;99.90;;;;;;4945542;28;20509;-79
2022/09/12 02:51:41;;;;;;;38.58;19.67;;;11.10;99.90;;;;;;4945158;28;20030;-79
2022/09/12 02:54:06;;;;;;;40.10;21.52;;;11.00;99.90;;;;;;4959233;28;20451;-79
2022/09/12 02:56:32;;;;;;;42.63;21.52;;;11.00;99.90;;;;;;4953535;28;20035;-76
2022/09/12 02:59:03;;;;;;;38.00;20.88;;;11.00;99.90;;;;;;4967062;28;20089;-77
2022/09/12 03:01:50;;;;;;;40.58;20.58;;;11.00;99.90;;;;;;4963496;28;20523;-76
2022/09/12 03:04:42;;;;;;;36.65;20.58;;;11.00;99.90;;;;;;4978089;28;20023;-77
2022/09/12 03:07:45;;;;;;;44.13;20.83;;;11.00;99.90;;;;;;4961994;28;20035;-77
2022/09/12 03:10:32;;;;;;;39.80;19.92;;;10.90;99.90;;;;;;4962266;28;20061;-76
2022/09/12 03:13:09;;;;;;;40.08;21.85;;;11.00;99.90;;;;;;4963555;28;20049;-76
2022/09/12 03:15:44;;;;;;;39.35;20.90;;;10.90;99.90;;;;;;4965733;28;20561;-75
2022/09/12 03:18:16;;;;;;;37.83;20.52;;;10.90;99.90;;;;;;4963799;28;20824;-76
2022/09/12 03:21:17;;;;;;;42.70;21.25;;;11.00;99.90;;;;;;4968533;28;20035;-76
2022/09/12 03:23:54;;;;;;;37.72;21.48;;;10.90;99.90;;;;;;4946052;28;20031;-76
2022/09/12 03:26:36;;;;;;;42.53;21.25;;;10.90;99.90;;;;;;4940977;28;20045;-77
2022/09/12 03:29:02;;;;;;;38.97;19.75;;;10.80;99.90;;;;;;4961584;28;20493;-76
2022/09/12 03:31:28;;;;;;;38.00;20.85;;;10.80;99.90;;;;;;4959494;28;20038;-76
2022/09/12 03:33:54;;;;;;;36.35;20.20;;;10.80;99.90;;;;;;4947105;28;20517;-76
2022/09/12 03:36:23;;;;;;;39.95;21.30;;;10.80;99.90;;;;;;4965223;28;20502;-76
2022/09/12 03:38:49;;;;;;;37.80;19.70;;;10.80;99.90;;;;;;4944823;28;20541;-76
2022/09/12 03:41:14;;;;;;;39.25;21.00;;;10.70;99.90;;;;;;4959300;28;20111;-76
2022/09/12 03:43:40;;;;;;;35.53;18.90;;;10.80;99.90;;;;;;4984448;28;20042;-76
2022/09/12 03:46:05;;;;;;;40.45;20.58;;;10.70;99.90;;;;;;4959339;28;20449;-76
2022/09/12 03:48:31;;;;;;;39.17;20.85;;;10.60;99.90;;;;;;4951038;28;20542;-77
2022/09/12 03:51:04;;;;;;;40.42;22.00;;;10.60;99.90;;;;;;4958060;28;20030;-76
2022/09/12 03:53:29;;;;;;;38.72;20.13;;;10.60;99.90;;;;;;4943509;28;20503;-76
2022/09/12 03:55:55;;;;;;;40.20;19.67;;;10.60;99.90;;;;;;4967032;28;20089;-76
2022/09/12 03:58:21;;;;;;;37.83;19.98;;;10.60;99.90;;;;;;4960009;28;20117;-77
2022/09/12 04:00:46;;;;;;;37.97;20.67;;;10.60;99.90;;;;;;4952282;28;20037;-76
2022/09/12 04:03:12;;;;;;;37.88;19.88;;;10.60;99.90;;;;;;4967866;28;20054;-76
2022/09/12 04:05:37;;;;;;;39.20;21.92;;;10.70;99.90;;;;;;4945534;28;20041;-77
2022/09/12 04:08:03;;;;;;;37.90;21.50;;;10.60;99.90;;;;;;4960510;28;20034;-77
2022/09/12 04:10:28;;;;;;;42.20;20.95;;;10.60;99.90;;;;;;4968150;28;20038;-76
2022/09/12 04:12:54;;;;;;;38.72;21.33;;;10.60;99.90;;;;;;4947672;28;20054;-76
2022/09/12 04:15:19;;;;;;;39.28;20.45;;;10.50;99.90;;;;;;4949632;28;20046;-75
2022/09/12 04:17:45;;;;;;;40.88;19.65;;;10.60;99.90;;;;;;4962229;28;20026;-75
2022/09/12 04:20:10;;;;;;;38.40;20.00;;;10.60;99.90;;;;;;4947698;28;20035;-77
2022/09/12 04:22:36;;;;;;;40.97;19.88;;;10.60;99.90;;;;;;4964889;28;20435;-76
2022/09/12 04:25:02;;;;;;;40.75;20.05;;;10.60;99.90;;;;;;4952969;28;20498;-76
2022/09/12 04:27:27;;;;;;;32.85;19.48;;;10.60;99.90;;;;;;4947954;28;20521;-76
2022/09/12 04:29:54;;;;;;;33.45;18.80;;;10.60;99.90;;;;;;4966214;28;20041;-76
2022/09/12 04:32:20;;;;;;;36.15;20.23;;;10.60;99.90;;;;;;4955378;28;20022;-78
2022/09/12 04:34:46;;;;;;;37.08;19.15;;;10.60;99.90;;;;;;4955824;28;20038;-77
2022/09/12 04:37:12;;;;;;;34.90;18.77;;;10.60;99.90;;;;;;4953010;28;20034;-76
2022/09/12 04:39:37;;;;;;;41.83;18.95;;;10.50;99.90;;;;;;4972418;28;20032;-76
2022/09/12 04:42:03;;;;;;;39.63;19.27;;;10.60;99.90;;;;;;4933052;28;20037;-77
2022/09/12 04:44:29;;;;;;;34.60;18.15;;;10.70;99.90;;;;;;4962975;28;20114;-77
2022/09/12 04:46:55;;;;;;;32.60;18.67;;;10.70;99.90;;;;;;4951947;28;20020;-76
2022/09/12 04:49:21;;;;;;;32.53;18.45;;;10.70;99.90;;;;;;4955104;28;20039;-76
2022/09/12 04:51:47;;;;;;;33.13;19.20;;;10.70;99.90;;;;;;4955206;28;20030;-78
2022/09/12 04:54:15;;;;;;;31.73;17.67;;;10.70;99.90;;;;;;4961035;28;20039;-77
2022/09/12 04:56:41;;;;;;;33.90;17.75;;;10.80;99.90;;;;;;4965727;28;20438;-76
2022/09/12 04:59:07;;;;;;;32.65;17.80;;;10.70;99.90;;;;;;4267330;28;10000163;-77
2022/09/12 05:01:33;;;;;;;39.00;19.17;;;10.70;99.90;;;;;;4969280;28;20537;-76
2022/09/12 05:03:59;;;;;;;36.15;19.13;;;10.70;99.90;;;;;;4962310;28;20039;-76
2022/09/12 05:06:26;;;;;;;35.17;18.60;;;10.70;99.90;;;;;;4925836;28;20244;-76
2022/09/12 05:08:52;;;;;;;33.63;18.08;;;10.80;99.90;;;;;;4947772;28;20076;-77
2022/09/12 05:11:20;;;;;;;36.25;19.10;;;10.80;99.90;;;;;;4956195;28;20565;-77
2022/09/12 05:13:46;;;;;;;38.88;18.58;;;10.80;99.90;;;;;;4958762;28;20042;-76
2022/09/12 05:16:13;;;;;;;34.08;17.77;;;10.80;99.90;;;;;;4967944;28;20449;-77
2022/09/12 05:18:39;;;;;;;36.75;18.38;;;10.80;99.90;;;;;;4961971;28;20121;-76
2022/09/12 05:21:06;;;;;;;38.50;18.70;;;10.80;99.90;;;;;;4965843;28;20138;-77
2022/09/12 05:23:32;;;;;;;31.65;18.02;;;10.80;99.90;;;;;;4969358;28;20035;-77
2022/09/12 05:25:58;;;;;;;37.80;19.17;;;10.80;99.90;;;;;;4965102;28;20253;-77
2022/09/12 05:28:27;;;;;;;39.10;19.02;;;10.90;99.90;;;;;;4942501;28;20495;-78
2022/09/12 05:30:59;;;;;;;38.45;19.35;;;10.90;99.90;;;;;;4936656;28;20948;-77
2022/09/12 05:33:25;;;;;;;38.75;19.25;;;10.90;99.90;;;;;;4962038;28;20039;-78
2022/09/12 05:35:51;;;;;;;36.03;18.75;;;11.00;99.90;;;;;;4964471;28;20513;-77
2022/09/12 05:38:17;;;;;;;38.63;18.95;;;11.00;99.90;;;;;;4963385;28;20539;-77
2022/09/12 05:40:42;;;;;;;42.83;20.05;;;11.10;99.90;;;;;;4964259;28;20122;-77
2022/09/12 05:43:10;;;;;;;43.13;20.73;;;11.10;99.90;;;;;;4918101;28;20510;-76
2022/09/12 05:45:37;;;;;;;44.28;21.45;;;11.20;99.90;;;;;;4963394;28;20037;-76
2022/09/12 05:48:03;;;;;;;39.55;20.20;;;11.30;99.90;;;;;;4951257;28;20088;-77
2022/09/12 05:50:28;;;;;;;49.75;21.55;;;11.30;99.90;;;;;;4964264;28;20054;-77
2022/09/12 05:52:55;;;;;;;51.95;21.70;;;11.40;99.90;;;;;;4962624;28;20030;-77
2022/09/12 05:55:21;;;;;;;46.45;21.40;;;11.50;99.90;;;;;;4938004;28;20067;-77
2022/09/12 05:57:47;;;;;;;49.90;21.98;;;11.60;99.90;;;;;;4962286;28;20080;-77
2022/09/12 06:00:13;;;;;;;49.08;22.48;;;11.70;99.90;;;;;;4946928;28;20039;-77
2022/09/12 06:02:39;;;;;;;51.17;21.70;;;11.80;99.90;;;;;;4948450;28;20043;-77
2022/09/12 06:05:05;;;;;;;58.35;24.85;;;11.90;99.90;;;;;;4965951;28;20037;-76
2022/09/12 06:07:31;;;;;;;50.65;23.35;;;12.10;99.90;;;;;;4935598;28;20034;-77
2022/09/12 06:09:58;;;;;;;50.42;22.27;;;12.20;99.90;;;;;;4947472;28;20081;-77
2022/09/12 06:12:29;;;;;;;53.90;23.50;;;12.30;99.90;;;;;;4927435;28;20491;-77
2022/09/12 06:14:55;;;;;;;57.03;25.13;;;12.40;99.90;;;;;;4968571;28;20030;-76
2022/09/12 06:17:21;;;;;;;64.20;25.75;;;12.50;99.90;;;;;;4966514;28;20027;-78
2022/09/12 06:19:48;;;;;;;65.55;25.40;;;12.60;99.90;;;;;;4948494;28;20133;-76
2022/09/12 06:22:15;;;;;;;69.35;26.75;;;12.70;99.90;;;;;;4950946;28;20030;-77
2022/09/12 06:24:40;;;;;;;64.07;27.58;;;12.80;99.90;;;;;;4949232;28;20226;-77
2022/09/12 06:27:06;;;;;;;67.90;27.45;;;13.00;99.90;;;;;;4937940;28;20046;-78
2022/09/12 06:29:31;;;;;;;70.30;27.90;;;13.10;99.90;;;;;;4959969;28;20130;-78
2022/09/12 06:31:57;;;;;;;70.10;29.40;;;13.30;99.90;;;;;;4966245;28;20039;-77
2022/09/12 06:34:22;;;;;;;72.70;28.45;;;13.40;99.90;;;;;;4950328;28;20030;-77
2022/09/12 06:36:48;;;;;;;71.45;26.88;;;13.50;99.90;;;;;;4962439;28;20030;-77
2022/09/12 06:39:21;;;;;;;61.90;26.88;;;13.60;99.90;;;;;;4944513;28;20027;-76
2022/09/12 06:41:50;;;;;;;71.70;30.00;;;13.70;99.90;;;;;;4965271;28;20042;-78
2022/09/12 06:44:20;;;;;;;64.47;27.60;;;13.80;99.90;;;;;;4951714;28;20030;-77
2022/09/12 06:46:45;;;;;;;63.80;27.08;;;14.00;99.90;;;;;;4953182;28;20402;-77
2022/09/12 06:49:11;;;;;;;65.97;28.02;;;14.00;99.90;;;;;;4962748;28;20066;-77
2022/09/12 06:51:36;;;;;;;70.78;31.30;;;14.10;99.90;;;;;;4934367;28;20038;-77
2022/09/12 06:54:02;;;;;;;78.57;31.50;;;14.20;99.90;;;;;;4979643;28;20125;-76
2022/09/12 06:56:28;;;;;;;84.45;31.70;;;14.30;99.90;;;;;;4959701;28;20085;-78
2022/09/12 06:58:57;;;;;;;74.85;31.52;;;14.40;99.90;;;;;;4968974;28;20046;-77
2022/09/12 07:01:24;;;;;;;62.72;26.83;;;14.50;99.90;;;;;;4958632;28;20027;-77
2022/09/12 07:03:51;;;;;;;67.22;26.80;;;14.60;99.90;;;;;;4949629;28;20066;-77
2022/09/12 07:06:18;;;;;;;63.25;25.75;;;14.80;99.90;;;;;;4928564;28;20055;-77
2022/09/12 07:08:44;;;;;;;75.90;30.73;;;15.00;99.90;;;;;;4961974;28;20117;-77
2022/09/12 07:11:23;;;;;;;78.88;32.97;;;15.20;99.90;;;;;;4965216;28;20118;-77
2022/09/12 07:13:50;;;;;;;84.88;33.83;;;15.20;99.90;;;;;;4963503;28;20075;-76
2022/09/12 07:16:16;;;;;;;92.00;33.20;;;15.30;99.90;;;;;;4950935;28;20057;-77
2022/09/12 07:18:42;;;;;;;104.15;35.95;;;15.40;99.90;;;;;;4959852;28;20491;-77
2022/09/12 07:21:10;;;;;;;100.75;36.47;;;15.50;99.90;;;;;;4933386;28;20084;-78
2022/09/12 07:23:35;;;;;;;71.05;28.45;;;15.60;99.90;;;;;;4950490;28;20514;-77
2022/09/12 07:26:01;;;;;;;54.95;22.83;;;15.70;99.90;;;;;;4959145;28;20022;-76
2022/09/12 07:28:28;;;;;;;49.60;22.15;;;15.80;99.90;;;;;;4948613;28;20035;-77
2022/09/12 07:30:53;;;;;;;83.57;33.97;;;15.90;99.90;;;;;;4953453;28;20057;-77
2022/09/12 07:33:20;;;;;;;91.72;34.67;;;15.90;99.90;;;;;;4958812;28;20086;-77
2022/09/12 07:35:45;;;;;;;99.45;36.70;;;16.00;99.90;;;;;;4963223;28;20030;-77
2022/09/12 07:38:11;;;;;;;59.75;25.10;;;16.10;99.90;;;;;;4950891;28;20041;-77
2022/09/12 07:40:37;;;;;;;84.55;33.72;;;16.20;99.90;;;;;;4944513;28;20031;-76
2022/09/12 07:43:02;;;;;;;80.50;30.02;;;16.30;99.90;;;;;;4968113;28;20041;-77
2022/09/12 07:45:28;;;;;;;77.10;30.23;;;16.40;99.90;;;;;;4958732;28;20391;-76
2022/09/12 07:47:54;;;;;;;75.57;29.23;;;16.50;99.90;;;;;;4938193;28;20033;-77
2022/09/12 07:50:19;;;;;;;98.18;39.03;;;16.60;99.90;;;;;;4953026;28;20034;-77
2022/09/12 07:52:45;;;;;;;85.50;34.28;;;16.70;99.90;;;;;;4947090;28;20033;-77
2022/09/12 07:55:11;;;;;;;71.03;29.48;;;16.80;99.90;;;;;;4963231;28;20517;-77
2022/09/12 07:57:36;;;;;;;49.30;21.95;;;16.90;99.90;;;;;;4949029;28;20038;-76
2022/09/12 08:00:03;;;;;;;30.13;15.95;;;17.00;99.90;;;;;;4953183;28;20536;-76
2022/09/12 08:02:29;;;;;;;45.63;22.55;;;17.00;99.90;;;;;;4938483;28;20038;-77
2022/09/12 08:04:54;;;;;;;49.80;23.48;;;17.10;99.90;;;;;;4964724;28;20238;-77
2022/09/12 08:07:20;;;;;;;41.40;21.75;;;17.20;99.90;;;;;;4971050;28;20035;-77
2022/09/12 08:09:45;;;;;;;21.77;13.68;;;17.40;99.90;;;;;;4965279;28;20033;-78
2022/09/12 08:12:11;;;;;;;25.60;14.43;;;17.50;99.90;;;;;;4946115;28;20047;-78
2022/09/12 08:14:36;;;;;;;21.83;14.15;;;17.70;99.90;;;;;;4966287;28;20054;-77
2022/09/12 08:17:02;;;;;;;29.48;17.67;;;17.70;99.90;;;;;;4961714;28;20049;-78
2022/09/12 08:19:27;;;;;;;23.95;12.98;;;17.90;99.90;;;;;;4972297;28;20403;-79
2022/09/12 08:21:53;;;;;;;18.20;13.18;;;18.00;99.90;;;;;;4969731;28;20500;-78
2022/09/12 08:24:19;;;;;;;20.30;12.13;;;18.10;99.90;;;;;;4962155;28;20206;-77
2022/09/12 08:26:44;;;;;;;12.63;10.25;;;18.10;99.90;;;;;;4953998;28;20107;-77
2022/09/12 08:29:10;;;;;;;12.75;9.48;;;18.20;99.90;;;;;;4966414;28;20461;-77
2022/09/12 08:31:36;;;;;;;12.32;8.55;;;18.20;99.90;;;;;;4950506;28;20031;-77
2022/09/12 08:34:03;;;;;;;18.73;12.07;;;18.40;99.90;;;;;;4947008;28;20045;-77
2022/09/12 08:36:29;;;;;;;17.17;9.82;;;18.40;99.90;;;;;;4946344;28;20041;-78
2022/09/12 08:38:56;;;;;;;17.90;10.98;;;18.60;99.90;;;;;;4957483;28;20030;-78
2022/09/12 08:41:26;;;;;;;12.93;9.95;;;18.60;99.90;;;;;;4961572;28;20483;-77
2022/09/12 08:44:07;;;;;;;7.13;5.47;;;18.80;99.90;;;;;;4979288;28;20478;-77
2022/09/12 08:46:56;;;;;;;14.95;10.93;;;18.80;99.90;;;;;;4958481;28;20089;-79
2022/09/12 08:49:33;;;;;;;11.45;8.38;;;18.90;99.90;;;;;;4977780;28;20122;-78
2022/09/12 08:52:01;;;;;;;11.55;7.45;;;19.10;99.90;;;;;;4966543;28;20050;-78
2022/09/12 08:54:28;;;;;;;11.60;8.32;;;19.20;99.90;;;;;;4931426;28;20034;-78
2022/09/12 08:57:00;;;;;;;11.68;7.60;;;19.60;99.90;;;;;;4950837;28;20038;-78
2022/09/12 08:59:28;;;;;;;13.98;9.85;;;19.90;99.90;;;;;;4952839;28;20085;-78
2022/09/12 09:01:55;;;;;;;13.30;8.60;;;20.00;99.90;;;;;;4950627;28;20092;-79
2022/09/12 09:04:30;;;;;;;12.77;8.38;;;20.20;99.90;;;;;;4950044;28;20030;-78
2022/09/12 09:07:02;;;;;;;10.93;8.05;;;20.40;99.90;;;;;;4966288;28;20435;-78
2022/09/12 09:09:41;;;;;;;9.50;7.20;;;20.50;99.90;;;;;;4983022;28;20046;-79
2022/09/12 09:12:15;;;;;;;10.23;6.63;;;20.60;99.90;;;;;;4979303;28;20038;-79
2022/09/12 09:14:48;;;;;;;8.90;7.03;;;20.70;99.90;;;;;;4981921;28;20067;-79
2022/09/12 09:17:26;;;;;;;10.85;7.03;;;20.60;99.90;;;;;;4963695;28;20035;-79
2022/09/12 09:19:58;;;;;;;10.40;6.78;;;20.80;99.90;;;;;;4939853;28;20592;-79
2022/09/12 09:22:27;;;;;;;22.23;6.97;;;20.80;99.90;;;;;;4938237;28;20039;-79
2022/09/12 09:24:57;;;;;;;7.43;6.63;;;20.80;99.90;;;;;;4948237;28;20038;-79
2022/09/12 09:27:58;;;;;;;7.13;6.35;;;20.70;99.90;;;;;;4948159;28;20038;-79
2022/09/12 09:30:24;;;;;;;7.93;5.70;;;20.80;99.90;;;;;;4951322;28;20057;-80
2022/09/12 09:33:04;;;;;;;6.38;5.72;;;20.90;99.90;;;;;;4950755;28;20550;-79
2022/09/12 09:35:36;;;;;;;7.35;5.80;;;21.00;99.90;;;;;;4915471;28;20558;-80
2022/09/12 09:38:33;;;;;;;8.45;5.63;;;20.90;99.90;;;;;;4959854;28;20052;-79
2022/09/12 09:41:20;;;;;;;6.57;5.13;;;21.00;99.90;;;;;;4976388;28;20080;-79
2022/09/12 09:43:45;;;;;;;5.25;4.63;;;21.20;99.90;;;;;;4981021;28;20041;-79
2022/09/12 09:46:12;;;;;;;5.40;4.28;;;21.60;99.90;;;;;;4945561;28;20142;-79
2022/09/12 09:48:45;;;;;;;7.07;4.28;;;22.00;99.90;;;;;;4948309;28;20042;-80
2022/09/12 09:51:11;;;;;;;5.68;4.15;;;22.40;99.90;;;;;;4939583;28;20041;-79
2022/09/12 09:53:42;;;;;;;5.60;3.78;;;22.70;99.90;;;;;;4956172;28;20097;-79
2022/09/12 09:56:25;;;;;;;4.88;3.67;;;23.00;99.90;;;;;;4961156;28;20065;-80
2022/09/12 09:58:51;;;;;;;5.00;3.55;;;22.90;99.90;;;;;;4937314;28;20104;-80
2022/09/12 10:01:16;;;;;;;3.58;3.00;;;23.10;99.90;;;;;;4951976;28;20038;-79
2022/09/12 10:03:52;;;;;;;3.63;3.33;;;23.60;99.90;;;;;;4938398;28;20085;-80
2022/09/12 10:06:18;;;;;;;;;;;23.40;99.90;;;;;;4955670;28;20031;-79
2022/09/12 10:08:43;;;;;;;2.97;2.63;;;23.70;99.90;;;;;;4979381;28;20333;-79
2022/09/12 10:11:14;;;;;;;3.05;2.85;;;23.60;99.90;;;;;;4945441;28;20715;-80
2022/09/12 10:13:56;;;;;;;3.20;2.47;;;23.70;99.90;;;;;;4978696;28;20137;-80
2022/09/12 10:16:32;;;;;;;3.80;3.08;;;23.30;99.90;;;;;;4966144;28;20391;-79
2022/09/12 10:18:59;;;;;;;3.85;2.70;;;23.60;99.70;;;;;;4946034;28;20031;-79
2022/09/12 10:21:32;;;;;;;5.88;3.30;;;23.90;98.90;;;;;;4951442;28;20035;-82
2022/09/12 10:24:05;;;;;;;2.83;2.53;;;24.00;98.50;;;;;;4958878;28;20046;-79
2022/09/12 10:26:35;;;;;;;3.72;2.30;;;23.70;98.10;;;;;;4934745;28;20045;-80
2022/09/12 10:29:04;;;;;;;2.55;2.20;;;24.20;96.00;;;;;;4953136;28;20038;-80
2022/09/12 10:31:40;;;;;;;2.50;2.30;;;24.40;96.40;;;;;;4964029;28;20562;-80
2022/09/12 10:34:09;;;;;;;2.60;2.40;;;24.60;95.60;;;;;;4938850;28;20165;-80
2022/09/12 10:36:38;;;;;;;2.88;2.65;;;24.50;94.70;;;;;;4933086;28;20529;-79
2022/09/12 10:39:03;;;;;;;3.20;2.25;;;25.20;93.30;;;;;;4937042;28;20058;-80
2022/09/12 10:41:36;;;;;;;2.58;2.35;;;25.20;94.60;;;;;;4963379;28;20069;-80
2022/09/12 10:44:13;;;;;;;3.97;3.55;;;25.20;94.80;;;;;;4949036;28;20082;-79
2022/09/12 10:46:39;;;;;;;2.25;2.13;;;25.10;94.10;;;;;;4949099;28;20557;-81
2022/09/12 10:49:28;;;;;;;4.35;2.17;;;25.40;92.80;;;;;;4954985;28;20129;-81
2022/09/12 10:51:55;;;;;;;3.75;2.20;;;25.70;91.60;;;;;;4979898;28;20030;-80
2022/09/12 10:54:23;;;;;;;2.13;2.00;;;25.50;92.50;;;;;;4961596;28;20455;-80
2022/09/12 10:57:36;;;;;;;2.40;2.20;;;25.70;92.30;;;;;;4948777;28;20030;-79
2022/09/12 11:00:13;;;;;;;2.10;1.90;;;26.00;91.30;;;;;;4954463;28;20058;-81
2022/09/12 11:03:16;;;;;;;3.97;2.38;;;26.00;91.60;;;;;;4958774;28;20042;-80
2022/09/12 11:05:55;;;;;;;2.95;2.20;;;25.80;93.00;;;;;;4943332;28;20065;-81
2022/09/12 11:08:46;;;;;;;1.77;1.67;;;25.60;94.10;;;;;;4960446;28;20147;-81
2022/09/12 11:11:18;;;;;;;3.58;1.98;;;25.70;94.00;;;;;;4947733;28;20125;-81
2022/09/12 11:13:58;;;;;;;2.63;2.22;;;26.40;92.80;;;;;;4964860;28;20042;-78
2022/09/12 11:17:01;;;;;;;3.47;1.92;;;26.60;91.60;;;;;;4975867;28;20446;-78
2022/09/12 11:19:39;;;;;;;2.80;2.00;;;26.80;90.40;;;;;;4953119;28;20059;-78
2022/09/12 11:22:20;;;;;;;2.10;1.90;;;27.10;88.40;;;;;;4962977;28;20034;-78
2022/09/12 11:24:57;;;;;;;2.08;1.92;;;27.10;87.80;;;;;;4974574;28;20057;-78
2022/09/12 11:27:32;;;;;;;3.22;2.17;;;26.80;87.80;;;;;;4947409;28;20034;-78
2022/09/12 11:30:13;;;;;;;2.00;1.83;;;26.90;88.30;;;;;;4961207;28;20038;-82
2022/09/12 11:32:39;;;;;;;2.70;2.25;;;27.10;86.50;;;;;;4933100;28;20031;-82
2022/09/12 11:35:08;;;;;;;3.88;2.13;;;27.60;83.30;;;;;;4957170;28;20030;-82
2022/09/12 11:38:11;;;;;;;1.92;1.83;;;27.50;84.50;;;;;;4965566;28;20031;-82
2022/09/12 11:40:44;;;;;;;4.25;2.45;;;27.70;85.30;;;;;;4935192;28;20486;-82
2022/09/12 11:43:28;;;;;;;1.58;1.48;;;27.60;87.50;;;;;;4937771;28;20039;-81
2022/09/12 11:45:58;;;;;;;2.15;1.77;;;28.00;85.60;;;;;;4917569;28;20487;-82
2022/09/12 11:48:28;;;;;;;2.90;1.98;;;27.60;88.30;;;;;;4925535;28;20130;-82
2022/09/12 11:51:02;;;;;;;3.78;2.20;;;28.40;82.20;;;;;;4961171;28;20029;-82
2022/09/12 11:53:29;;;;;;;2.60;1.92;;;28.60;80.50;;;;;;4937097;28;20038;-82
2022/09/12 11:56:08;;;;;;;3.65;1.83;;;28.80;82.00;;;;;;4964378;28;20026;-82
2022/09/12 11:58:35;;;;;;;3.03;1.85;;;28.10;84.10;;;;;;4950808;28;20045;-82
2022/09/12 12:01:16;;;;;;;1.83;1.73;;;28.40;81.10;;;;;;4949422;28;20553;-83
2022/09/12 12:03:45;;;;;;;1.75;1.65;;;29.10;79.20;;;;;;4936229;28;20122;-82
2022/09/12 12:06:25;;;;;;;2.03;1.73;;;29.10;77.20;;;;;;4931850;28;20498;-82
2022/09/12 12:08:51;;;;;;;2.22;2.00;;;28.70;77.90;;;;;;4952547;28;20038;-83
2022/09/12 12:11:31;;;;;;;2.38;2.20;;;29.10;76.80;;;;;;4930692;28;20046;-82
2022/09/12 12:14:11;;;;;;;2.08;1.98;;;29.40;77.00;;;;;;4946797;28;20058;-82
2022/09/12 12:16:37;;;;;;;2.03;1.83;;;29.70;74.10;;;;;;4913416;28;20125;-83
2022/09/12 12:19:13;;;;;;;2.83;2.05;;;29.10;77.90;;;;;;4917406;28;20471;-82
2022/09/12 12:21:50;;;;;;;2.22;1.90;;;29.30;77.20;;;;;;4959462;28;20423;-83
2022/09/12 12:24:19;;;;;;;1.88;1.77;;;28.80;79.90;;;;;;4931929;28;20039;-83
2022/09/12 12:27:04;;;;;;;2.10;2.00;;;29.20;75.50;;;;;;4980352;28;20118;-83
2022/09/12 12:29:46;;;;;;;2.22;2.00;;;29.50;73.30;;;;;;4965287;28;20520;-82
2022/09/12 12:32:15;;;;;;;2.58;1.83;;;29.10;73.00;;;;;;4935913;28;20037;-83
2022/09/12 12:34:43;;;;;;;2.20;1.95;;;29.50;71.40;;;;;;4959583;28;20038;-83
2022/09/12 12:37:18;;;;;;;1.98;1.80;;;30.30;68.40;;;;;;4935374;28;20027;-83
2022/09/12 12:39:47;;;;;;;2.35;1.77;;;30.40;70.20;;;;;;4958001;28;20121;-83
2022/09/12 12:42:33;;;;;;;2.28;1.80;;;29.70;71.90;;;;;;4957898;28;20042;-83
2022/09/12 12:45:08;;;;;;;2.42;2.22;;;29.80;70.90;;;;;;4958218;28;20152;-82
2022/09/12 12:47:41;;;;;;;2.05;1.85;;;30.10;70.70;;;;;;4971966;28;20066;-83
2022/09/12 12:50:20;;;;;;;4.22;2.08;;;30.20;70.10;;;;;;4945617;28;20031;-82
2022/09/12 12:53:04;;;;;;;3.28;1.98;;;29.80;71.00;;;;;;4966517;28;20481;-83
2022/09/12 12:55:45;;;;;;;1.60;1.48;;;30.10;69.60;;;;;;4973882;28;20089;-83